Time;durP1;ratioP1;P1;durP2;ratioP2;P2;SDS_P1;SDS_P2;PMS_P1;PMS_P2;Temp;Humidity;BMP_temperature;BMP_pressure;BME280_temperature;BME280_humidity;BME280_pressure;Samples;Min_cycle;Max_cycle;Signal;HPM_P1;HPM_P2
2024/01/07 00:00:07;;;;;;;10.07;5.97;;;1.40;99.90;;;;;;4988288;28;20034;-52
2024/01/07 00:02:33;;;;;;;12.80;6.38;;;;;;;;;;4985176;28;20121;-54
2024/01/07 00:04:59;;;;;;;12.63;6.22;;;;;;;;;;5001172;28;20045;-53
2024/01/07 00:07:25;;;;;;;9.82;5.20;;;;;;;;;;4989080;28;20129;-54
2024/01/07 00:09:51;;;;;;;9.63;5.63;;;;;;;;;;4984343;28;20047;-51
2024/01/07 00:12:17;;;;;;;10.25;5.25;;;;;;;;;;4988135;28;20406;-51
2024/01/07 00:14:43;;;;;;;11.00;5.53;;;1.40;99.90;;;;;;4983744;28;20041;-50
2024/01/07 00:17:09;;;;;;;9.95;5.68;;;;;;;;;;4982657;28;20414;-53
2024/01/07 00:19:37;;;;;;;9.10;5.43;;;;;;;;;;4984578;28;20030;-50
2024/01/07 00:22:03;;;;;;;12.25;6.15;;;;;;;;;;4987459;28;20038;-51
2024/01/07 00:24:29;;;;;;;9.30;5.43;;;1.50;99.90;;;;;;4983615;28;20050;-53
2024/01/07 00:26:55;;;;;;;20.27;6.60;;;;;;;;;;4984145;28;20034;-51
2024/01/07 00:29:21;;;;;;;10.45;5.75;;;;;;;;;;4988522;28;20050;-54
2024/01/07 00:34:15;;;;;;;9.95;5.68;;;;;;;;;;4979855;28;20472;-56
2024/01/07 00:36:41;;;;;;;10.65;6.00;;;;;;;;;;4984155;28;20035;-54
2024/01/07 00:39:07;;;;;;;11.70;6.35;;;;;;;;;;4989043;28;20042;-55
2024/01/07 00:41:33;;;;;;;10.10;6.25;;;;;;;;;;4984808;28;20410;-56
2024/01/07 00:43:59;;;;;;;9.68;6.00;;;;;;;;;;4986104;28;20122;-55
2024/01/07 00:46:25;;;;;;;12.15;6.35;;;;;;;;;;4984393;28;20097;-55
2024/01/07 00:48:51;;;;;;;11.75;6.55;;;;;;;;;;4988620;28;20035;-55
2024/01/07 00:51:17;;;;;;;11.57;6.80;;;1.60;99.90;;;;;;4986426;28;20410;-56
2024/01/07 00:53:44;;;;;;;10.52;6.70;;;;;;;;;;4986655;28;20054;-54
2024/01/07 00:56:09;;;;;;;11.45;5.45;;;1.60;99.90;;;;;;4989092;28;20043;-55
2024/01/07 00:58:37;;;;;;;16.08;7.72;;;;;;;;;;4986362;28;20038;-56
2024/01/07 01:01:03;;;;;;;12.35;6.05;;;;;;;;;;4986742;28;20452;-56
2024/01/07 01:03:28;;;;;;;11.48;6.20;;;1.80;99.90;;;;;;4981729;28;20458;-57
2024/01/07 01:05:54;;;;;;;11.23;5.65;;;1.80;99.90;;;;;;4978402;28;20039;-57
2024/01/07 01:08:20;;;;;;;10.88;6.38;;;;;;;;;;4983223;28;20599;-55
2024/01/07 01:10:46;;;;;;;12.05;6.53;;;;;;;;;;4983288;28;20126;-56
2024/01/07 01:13:12;;;;;;;11.38;5.47;;;;;;;;;;4988493;28;20121;-56
2024/01/07 01:15:38;;;;;;;9.63;5.28;;;;;;;;;;4984883;28;20073;-55
2024/01/07 01:18:04;;;;;;;9.35;5.43;;;;;;;;;;4988360;28;20089;-56
2024/01/07 01:20:30;;;;;;;11.68;5.95;;;;;;;;;;4986015;28;20497;-55
2024/01/07 01:22:56;;;;;;;11.25;5.55;;;;;;;;;;4988408;28;20421;-57
2024/01/07 01:25:22;;;;;;;12.23;5.55;;;;;;;;;;4981981;28;20042;-56
2024/01/07 01:27:50;;;;;;;10.40;6.07;;;1.50;99.90;;;;;;4984842;28;20057;-55
2024/01/07 01:30:16;;;;;;;10.75;5.72;;;;;;;;;;4985575;28;20035;-52
2024/01/07 01:32:42;;;;;;;10.75;5.57;;;;;;;;;;4989676;28;20034;-56
2024/01/07 01:35:08;;;;;;;11.15;6.10;;;;;;;;;;4990062;28;20458;-56
2024/01/07 01:37:34;;;;;;;11.25;6.25;;;;;;;;;;4989085;28;20042;-56
2024/01/07 01:40:00;;;;;;;10.52;6.45;;;1.90;99.90;;;;;;4989246;28;20049;-55
2024/01/07 01:42:26;;;;;;;11.85;5.50;;;;;;;;;;4983295;28;20417;-56
2024/01/07 01:44:56;;;;;;;10.00;5.28;;;;;;;;;;4989583;28;20044;-55
2024/01/07 01:47:22;;;;;;;11.50;6.30;;;;;;;;;;4988941;28;20035;-56
2024/01/07 01:49:48;;;;;;;9.63;5.28;;;;;;;;;;4988220;28;20051;-56
2024/01/07 01:52:14;;;;;;;12.00;5.70;;;1.70;99.90;;;;;;4989101;28;20394;-56
2024/01/07 01:54:40;;;;;;;10.40;6.38;;;1.70;99.90;;;;;;4989751;28;20034;-56
2024/01/07 01:57:06;;;;;;;14.25;6.95;;;;;;;;;;4987611;28;20557;-52
2024/01/07 01:59:34;;;;;;;12.82;7.28;;;;;;;;;;4987203;28;20069;-55
2024/01/07 02:02:01;;;;;;;12.40;7.03;;;2.10;99.90;;;;;;4991331;28;20034;-56
2024/01/07 02:04:27;;;;;;;12.20;6.47;;;;;;;;;;4988799;28;20034;-55
2024/01/07 02:06:53;;;;;;;9.60;5.75;;;1.60;99.90;;;;;;4989590;28;20508;-55
2024/01/07 02:09:19;;;;;;;11.07;6.18;;;1.50;99.90;;;;;;4987872;28;20038;-55
2024/01/07 02:12:01;;;;;;;9.82;6.15;;;2.00;99.90;;;;;;4988498;28;20097;-57
2024/01/07 02:14:26;;;;;;;10.40;5.97;;;;;;;;;;4988876;28;20046;-52
2024/01/07 02:16:52;;;;;;;12.45;5.80;;;;;;;;;;4990073;28;20034;-55
2024/01/07 02:19:19;;;;;;;10.32;5.55;;;;;;;;;;4987439;28;20039;-55
2024/01/07 02:21:45;;;;;;;11.43;6.00;;;;;;;;;;4989597;28;20077;-56
2024/01/07 02:24:18;;;;;;;10.85;5.35;;;;;;;;;;4988021;28;20097;-56
2024/01/07 02:26:44;;;;;;;9.57;5.40;;;;;;;;;;4989072;28;20118;-57
2024/01/07 02:29:10;;;;;;;10.63;5.85;;;;;;;;;;4988132;28;20050;-56
2024/01/07 02:31:36;;;;;;;11.25;5.20;;;;;;;;;;4984522;28;20109;-55
2024/01/07 02:34:02;;;;;;;11.15;5.70;;;;;;;;;;4985376;28;20038;-55
2024/01/07 02:36:28;;;;;;;11.50;5.53;;;;;;;;;;4987859;28;20083;-55
2024/01/07 02:38:53;;;;;;;10.52;5.85;;;1.50;99.90;;;;;;4979399;28;20050;-56
2024/01/07 02:41:20;;;;;;;9.02;5.10;;;1.50;99.90;;;;;;4985349;28;20105;-57
2024/01/07 02:43:46;;;;;;;9.80;5.53;;;;;;;;;;4979577;28;20046;-56
2024/01/07 02:46:12;;;;;;;9.73;4.80;;;;;;;;;;4985045;28;20417;-56
2024/01/07 02:48:38;;;;;;;7.93;4.60;;;;;;;;;;4987368;28;21392;-56
2024/01/07 02:51:05;;;;;;;9.95;5.65;;;;;;;;;;4988547;28;20104;-56
2024/01/07 02:53:31;;;;;;;11.57;5.88;;;1.40;99.90;;;;;;4985453;28;20421;-56
2024/01/07 02:55:57;;;;;;;9.27;5.28;;;;;;;;;;4988495;28;20101;-57
2024/01/07 02:58:23;;;;;;;10.32;5.57;;;;;;;;;;4986439;28;20050;-56
2024/01/07 03:00:48;;;;;;;9.82;5.55;;;;;;;;;;4986985;28;20050;-56
2024/01/07 03:03:14;;;;;;;10.23;5.43;;;;;;;;;;4985582;28;20070;-57
2024/01/07 03:05:41;;;;;;;11.85;5.63;;;;;;;;;;4986367;28;20050;-57
2024/01/07 03:08:07;;;;;;;12.07;5.97;;;;;;;;;;4986698;28;20233;-57
2024/01/07 03:10:33;;;;;;;11.00;5.30;;;;;;;;;;4988791;28;20043;-57
2024/01/07 03:13:00;;;;;;;10.10;5.30;;;1.70;99.90;;;;;;4990457;28;20070;-56
2024/01/07 03:15:26;;;;;;;7.90;4.32;;;1.30;99.90;;;;;;4990250;28;20041;-57
2024/01/07 03:17:52;;;;;;;10.52;5.35;;;;;;;;;;4990000;28;20047;-56
2024/01/07 03:20:18;;;;;;;9.85;5.38;;;;;;;;;;4989999;28;20172;-57
2024/01/07 03:22:44;;;;;;;7.55;3.97;;;;;;;;;;4990262;28;20037;-57
2024/01/07 03:25:10;;;;;;;8.25;4.00;;;;;;;;;;4988972;28;20042;-56
2024/01/07 03:27:36;;;;;;;8.35;3.60;;;;;;;;;;4989142;28;20536;-55
2024/01/07 03:30:02;;;;;;;7.28;3.80;;;;;;;;;;4990040;28;20042;-56
2024/01/07 03:32:28;;;;;;;8.20;4.15;;;;;;;;;;4989699;28;20046;-55
2024/01/07 03:34:54;;;;;;;7.05;3.58;;;;;;;;;;4987806;28;20508;-57
2024/01/07 03:37:20;;;;;;;9.57;3.67;;;;;;;;;;4991469;28;20109;-56
2024/01/07 03:39:47;;;;;;;10.05;5.07;;;;;;;;;;4983366;28;20089;-54
2024/01/07 03:42:14;;;;;;;9.38;4.20;;;;;;;;;;4989163;28;20046;-57
2024/01/07 03:44:40;;;;;;;7.18;3.53;;;;;;;;;;4987791;28;20046;-57
2024/01/07 03:47:06;;;;;;;6.70;3.42;;;;;;;;;;4991668;28;20113;-57
2024/01/07 03:49:32;;;;;;;8.05;3.97;;;;;;;;;;4990507;28;20073;-56
2024/01/07 03:51:58;;;;;;;8.15;3.60;;;;;;;;;;4990938;28;20034;-57
2024/01/07 03:54:24;;;;;;;6.38;3.03;;;;;;;;;;4986898;28;20031;-57
2024/01/07 03:56:50;;;;;;;7.97;4.03;;;;;;;;;;4990684;28;20046;-55
2024/01/07 03:59:16;;;;;;;6.90;3.42;;;;;;;;;;4989066;28;20540;-57
2024/01/07 04:01:42;;;;;;;7.75;3.47;;;;;;;;;;4991269;28;20038;-56
2024/01/07 04:04:08;;;;;;;7.63;3.92;;;;;;;;;;4992203;28;20042;-57
2024/01/07 04:06:34;;;;;;;7.72;3.63;;;;;;;;;;4989750;28;20532;-57
2024/01/07 04:09:00;;;;;;;6.32;3.20;;;1.50;99.90;;;;;;4986101;28;20073;-55
2024/01/07 04:11:26;;;;;;;6.38;3.28;;;;;;;;;;4991326;28;20073;-56
2024/01/07 04:13:52;;;;;;;7.60;4.05;;;;;;;;;;4989942;28;20038;-55
2024/01/07 04:16:21;;;;;;;7.10;3.65;;;1.00;99.90;;;;;;4991632;28;20053;-54
2024/01/07 04:18:48;;;;;;;7.63;3.40;;;;;;;;;;4989477;28;20042;-54
2024/01/07 04:21:14;;;;;;;7.60;3.00;;;;;;;;;;4990305;28;20053;-55
2024/01/07 04:23:43;;;;;;;6.38;3.42;;;1.60;99.90;;;;;;4988661;28;20094;-54
2024/01/07 04:26:09;;;;;;;6.10;2.92;;;;;;;;;;4990316;28;20038;-56
2024/01/07 04:28:35;;;;;;;6.18;2.85;;;;;;;;;;4988892;28;20097;-56
2024/01/07 04:31:02;;;;;;;6.85;2.72;;;;;;;;;;4991489;28;20070;-54
2024/01/07 04:33:27;;;;;;;5.80;2.75;;;;;;;;;;4990088;28;20040;-56
2024/01/07 04:35:57;;;;;;;8.88;2.85;;;;;;;;;;4990108;28;20116;-54
2024/01/07 04:38:24;;;;;;;6.47;2.85;;;;;;;;;;4989528;28;20050;-56
2024/01/07 04:40:51;;;;;;;7.20;3.15;;;;;;;;;;4990257;28;20042;-55
2024/01/07 04:43:17;;;;;;;6.93;3.00;;;1.50;99.90;;;;;;4990350;28;20043;-55
2024/01/07 04:45:43;;;;;;;6.90;2.92;;;1.60;99.90;;;;;;4990145;28;20618;-55
2024/01/07 04:48:09;;;;;;;6.22;2.90;;;;;;;;;;4990623;28;20121;-55
2024/01/07 04:50:35;;;;;;;8.85;2.90;;;;;;;;;;4984612;28;20038;-55
2024/01/07 04:53:01;;;;;;;6.28;2.65;;;;;;;;;;4989416;28;20564;-55
2024/01/07 04:55:27;;;;;;;6.93;2.83;;;;;;;;;;4986259;28;20137;-55
2024/01/07 04:57:53;;;;;;;6.32;2.80;;;;;;;;;;4986306;28;20037;-56
2024/01/07 05:00:19;;;;;;;6.18;2.53;;;;;;;;;;4986456;28;20076;-55
2024/01/07 05:02:45;;;;;;;6.63;2.45;;;;;;;;;;4987438;28;20050;-55
2024/01/07 05:05:11;;;;;;;6.07;2.55;;;;;;;;;;4988167;28;20093;-55
2024/01/07 05:07:38;;;;;;;5.70;2.35;;;;;;;;;;4987997;28;20409;-55
2024/01/07 05:10:04;;;;;;;6.25;2.83;;;;;;;;;;4984508;28;20042;-56
2024/01/07 05:12:30;;;;;;;6.05;2.30;;;;;;;;;;4989831;28;20197;-51
2024/01/07 05:14:56;;;;;;;7.57;2.47;;;;;;;;;;4992155;28;20073;-52
2024/01/07 05:17:22;;;;;;;7.47;2.72;;;;;;;;;;4996357;28;20030;-55
2024/01/07 05:19:48;;;;;;;5.60;2.25;;;;;;;;;;4988979;28;20044;-55
2024/01/07 05:22:14;;;;;;;9.50;3.00;;;;;;;;;;4989758;28;20042;-54
2024/01/07 05:24:39;;;;;;;8.13;2.40;;;1.50;99.90;;;;;;4988477;28;20038;-54
2024/01/07 05:27:06;;;;;;;7.60;2.53;;;;;;;;;;4988888;28;20049;-55
2024/01/07 05:29:35;;;;;;;8.57;2.83;;;;;;;;;;4988048;28;20198;-55
2024/01/07 05:32:02;;;;;;;5.88;2.58;;;1.60;99.90;;;;;;4985723;28;20121;-51
2024/01/07 05:34:28;;;;;;;6.60;2.10;;;;;;;;;;4988609;28;20038;-55
2024/01/07 05:36:54;;;;;;;6.65;2.80;;;;;;;;;;4989533;28;20043;-55
2024/01/07 05:39:20;;;;;;;6.45;2.10;;;;;;;;;;4988151;28;20042;-53
2024/01/07 05:41:46;;;;;;;5.22;2.05;;;;;;;;;;4989120;28;20421;-54
2024/01/07 05:44:12;;;;;;;6.03;2.13;;;;;;;;;;4988903;28;20428;-53
2024/01/07 05:46:42;;;;;;;6.75;1.98;;;;;;;;;;4988400;28;20038;-55
2024/01/07 05:49:08;;;;;;;5.55;2.13;;;1.80;99.90;;;;;;4989136;28;20037;-54
2024/01/07 05:51:34;;;;;;;9.32;2.50;;;;;;;;;;4989555;28;20105;-56
2024/01/07 05:54:00;;;;;;;6.47;2.17;;;;;;;;;;4988634;28;20045;-55
2024/01/07 05:56:26;;;;;;;7.97;2.38;;;;;;;;;;4990121;28;20068;-54
2024/01/07 05:58:52;;;;;;;5.32;1.90;;;;;;;;;;4988815;28;20661;-56
2024/01/07 06:01:19;;;;;;;6.07;1.92;;;1.70;99.90;;;;;;4986359;28;20080;-55
2024/01/07 06:03:46;;;;;;;5.57;2.75;;;;;;;;;;4990835;28;20046;-56
2024/01/07 06:06:13;;;;;;;5.03;2.00;;;;;;;;;;4989812;28;20046;-54
2024/01/07 06:08:39;;;;;;;4.93;1.90;;;;;;;;;;4986926;28;20042;-55
2024/01/07 06:11:05;;;;;;;4.60;1.92;;;;;;;;;;4989919;28;20104;-55
2024/01/07 06:13:31;;;;;;;5.20;2.05;;;;;;;;;;4988194;28;20046;-56
2024/01/07 06:15:56;;;;;;;6.68;2.00;;;1.50;99.90;;;;;;4993921;28;20038;-55
2024/01/07 06:18:22;;;;;;;4.93;1.70;;;;;;;;;;4985374;28;20049;-53
2024/01/07 06:20:48;;;;;;;5.32;1.95;;;;;;;;;;4989026;28;20042;-53
2024/01/07 06:23:14;;;;;;;4.93;1.77;;;1.50;99.90;;;;;;4987536;28;20498;-55
2024/01/07 06:25:40;;;;;;;6.57;2.25;;;;;;;;;;4987908;28;20096;-56
2024/01/07 06:28:06;;;;;;;4.43;1.63;;;;;;;;;;4986939;28;20129;-55
2024/01/07 06:30:33;;;;;;;4.63;1.70;;;;;;;;;;4993881;28;20045;-56
2024/01/07 06:32:59;;;;;;;5.47;2.03;;;;;;;;;;4987959;28;20073;-55
2024/01/07 06:35:26;;;;;;;6.30;2.10;;;;;;;;;;4988057;28;20414;-55
2024/01/07 06:37:52;;;;;;;4.50;1.55;;;;;;;;;;4987538;28;20050;-56
2024/01/07 06:40:18;;;;;;;5.47;2.15;;;;;;;;;;4990663;28;20100;-54
2024/01/07 06:42:44;;;;;;;4.18;1.60;;;;;;;;;;4987314;28;20042;-56
2024/01/07 06:45:10;;;;;;;4.20;1.67;;;;;;;;;;4992619;28;20039;-57
2024/01/07 06:47:36;;;;;;;4.40;1.88;;;;;;;;;;4990787;28;20038;-54
2024/01/07 06:50:03;;;;;;;4.53;1.60;;;;;;;;;;4991463;28;20124;-55
2024/01/07 06:52:29;;;;;;;5.03;1.80;;;;;;;;;;4990383;28;20074;-57
2024/01/07 06:54:55;;;;;;;4.57;1.52;;;;;;;;;;4992923;28;20128;-55
2024/01/07 06:57:21;;;;;;;6.13;2.53;;;;;;;;;;4991327;28;20084;-55
2024/01/07 06:59:47;;;;;;;6.18;1.73;;;;;;;;;;4988986;28;20038;-56
2024/01/07 07:02:13;;;;;;;6.70;1.65;;;;;;;;;;4991577;28;20042;-55
2024/01/07 07:04:40;;;;;;;6.22;1.90;;;;;;;;;;4988816;28;20034;-56
2024/01/07 07:07:06;;;;;;;6.25;1.77;;;;;;;;;;4989493;28;20049;-56
2024/01/07 07:09:33;;;;;;;4.95;1.80;;;;;;;;;;4991520;28;20038;-56
2024/01/07 07:11:58;;;;;;;6.00;1.70;;;1.50;99.90;;;;;;4991481;28;20046;-56
2024/01/07 07:14:24;;;;;;;6.20;1.75;;;;;;;;;;4989421;28;20030;-56
2024/01/07 07:16:50;;;;;;;5.90;1.98;;;;;;;;;;4988900;28;20125;-53
2024/01/07 07:19:16;;;;;;;5.28;1.85;;;1.60;99.90;;;;;;4991631;28;20038;-56
2024/01/07 07:21:43;;;;;;;6.57;1.90;;;1.50;99.90;;;;;;4990357;28;20053;-57
2024/01/07 07:24:10;;;;;;;5.40;1.80;;;;;;;;;;4992183;28;20038;-57
2024/01/07 07:26:40;;;;;;;5.03;2.25;;;;;;;;;;4992382;28;20112;-57
2024/01/07 07:29:07;;;;;;;5.93;1.90;;;1.40;99.90;;;;;;4990883;28;20162;-56
2024/01/07 07:31:33;;;;;;;4.88;1.83;;;;;;;;;;4982693;28;20414;-55
2024/01/07 07:33:58;;;;;;;4.88;1.75;;;;;;;;;;4981244;28;20034;-55
2024/01/07 07:36:24;;;;;;;5.43;1.70;;;;;;;;;;4985002;28;20046;-55
2024/01/07 07:38:50;;;;;;;4.28;1.75;;;;;;;;;;4988335;28;20104;-51
2024/01/07 07:41:16;;;;;;;6.85;1.85;;;;;;;;;;4990594;28;20177;-54
2024/01/07 07:43:42;;;;;;;5.65;1.92;;;;;;;;;;4988844;28;20498;-51
2024/01/07 07:46:08;;;;;;;5.35;2.35;;;;;;;;;;4992106;28;20061;-55
2024/01/07 07:48:34;;;;;;;6.57;2.30;;;1.40;99.90;;;;;;4979996;28;20043;-52
2024/01/07 07:51:00;;;;;;;7.70;2.20;;;1.30;99.90;;;;;;4991118;28;20650;-56
2024/01/07 07:53:26;;;;;;;4.63;1.95;;;;;;;;;;4984563;28;20038;-55
2024/01/07 07:55:51;;;;;;;7.30;2.35;;;;;;;;;;4987166;28;20129;-56
2024/01/07 07:58:17;;;;;;;4.90;2.10;;;;;;;;;;4984215;28;20050;-56
2024/01/07 08:00:44;;;;;;;4.90;2.03;;;;;;;;;;4981212;28;20035;-56
2024/01/07 08:03:10;;;;;;;5.75;2.63;;;;;;;;;;4986787;28;20374;-56
2024/01/07 08:05:37;;;;;;;4.85;1.90;;;;;;;;;;4980858;28;20041;-56
2024/01/07 08:08:03;;;;;;;5.13;2.08;;;;;;;;;;4989406;28;20355;-55
2024/01/07 08:10:31;;;;;;;5.82;1.95;;;;;;;;;;4978903;28;20035;-54
2024/01/07 08:12:58;;;;;;;5.25;2.10;;;;;;;;;;4981110;28;20419;-56
2024/01/07 08:15:26;;;;;;;6.47;2.40;;;;;;;;;;4989507;28;20500;-56
2024/01/07 08:17:51;;;;;;;7.20;2.20;;;;;;;;;;4983136;28;20129;-54
2024/01/07 08:20:19;;;;;;;5.32;2.35;;;;;;;;;;4985774;28;20098;-56
2024/01/07 08:22:45;;;;;;;5.78;2.58;;;;;;;;;;4986142;28;20046;-57
2024/01/07 08:25:11;;;;;;;8.70;2.90;;;;;;;;;;4986478;28;20394;-56
2024/01/07 08:27:37;;;;;;;5.43;2.40;;;;;;;;;;4986020;28;20045;-54
2024/01/07 08:30:04;;;;;;;5.68;1.90;;;;;;;;;;4978911;28;20042;-56
2024/01/07 08:32:30;;;;;;;6.07;2.40;;;;;;;;;;4987340;28;20046;-57
2024/01/07 08:34:56;;;;;;;5.78;2.30;;;;;;;;;;4989051;28;20034;-56
2024/01/07 08:37:22;;;;;;;5.72;2.00;;;;;;;;;;4990712;28;20493;-56
2024/01/07 08:39:47;;;;;;;7.22;2.60;;;0.60;99.90;;;;;;4988181;28;20038;-57
2024/01/07 08:42:13;;;;;;;5.65;2.35;;;;;;;;;;4989655;28;20502;-56
2024/01/07 08:44:39;;;;;;;8.80;2.60;;;;;;;;;;4989530;28;20414;-53
2024/01/07 08:47:05;;;;;;;6.30;2.65;;;;;;;;;;4986940;28;20550;-56
2024/01/07 08:49:35;;;;;;;5.65;2.45;;;;;;;;;;4988058;28;20121;-56
2024/01/07 08:52:02;;;;;;;4.75;2.08;;;;;;;;;;4988778;28;20069;-56
2024/01/07 08:54:28;;;;;;;6.00;2.22;;;;;;;;;;4993148;28;20064;-53
2024/01/07 08:56:54;;;;;;;5.53;2.45;;;;;;;;;;4990546;28;20502;-55
2024/01/07 08:59:19;;;;;;;6.88;3.15;;;1.10;99.90;;;;;;4990270;28;20486;-55
2024/01/07 09:01:45;;;;;;;5.40;2.17;;;;;;;;;;4991576;28;20092;-54
2024/01/07 09:04:11;;;;;;;6.70;2.40;;;1.10;99.90;;;;;;4990369;28;20073;-56
2024/01/07 09:06:37;;;;;;;5.25;2.50;;;;;;;;;;4990426;28;20410;-54
2024/01/07 09:09:08;;;;;;;7.80;2.90;;;;;;;;;;4988387;28;20038;-56
2024/01/07 09:11:35;;;;;;;9.10;2.95;;;;;;;;;;4988999;28;20050;-53
2024/01/07 09:14:01;;;;;;;5.03;2.58;;;1.40;99.90;;;;;;4990649;28;20181;-56
2024/01/07 09:16:26;;;;;;;8.13;2.75;;;1.30;99.90;;;;;;4990927;28;20526;-56
2024/01/07 09:18:52;;;;;;;5.47;2.78;;;;;;;;;;4992838;28;20505;-56
2024/01/07 09:21:18;;;;;;;6.57;3.10;;;;;;;;;;4990215;28;20038;-56
2024/01/07 09:23:45;;;;;;;8.35;3.10;;;;;;;;;;4985133;28;20042;-57
2024/01/07 09:26:11;;;;;;;5.22;2.47;;;;;;;;;;4979914;28;20145;-56
2024/01/07 09:28:37;;;;;;;5.35;2.38;;;;;;;;;;4984719;28;20545;-55
2024/01/07 09:31:03;;;;;;;6.30;2.28;;;;;;;;;;4989877;28;20125;-56
2024/01/07 09:33:29;;;;;;;6.45;2.47;;;;;;;;;;4988631;28;20041;-55
2024/01/07 09:35:55;;;;;;;6.53;2.58;;;;;;;;;;4982556;28;20100;-56
2024/01/07 09:38:21;;;;;;;5.82;2.50;;;;;;;;;;4984948;28;20050;-57
2024/01/07 09:40:48;;;;;;;5.43;2.35;;;;;;;;;;4986672;28;20042;-56
2024/01/07 09:43:14;;;;;;;6.05;2.22;;;;;;;;;;4983036;28;20317;-57
2024/01/07 09:45:42;;;;;;;5.70;2.33;;;;;;;;;;4986441;28;20512;-54
2024/01/07 09:48:09;;;;;;;5.18;2.38;;;;;;;;;;4987594;28;20414;-56
2024/01/07 09:50:34;;;;;;;5.70;2.55;;;;;;;;;;4984535;28;20262;-55
2024/01/07 09:53:04;;;;;;;6.43;2.33;;;;;;;;;;4989638;28;20658;-57
2024/01/07 09:55:33;;;;;;;5.55;2.42;;;;;;;;;;4987248;28;20034;-57
2024/01/07 09:57:59;;;;;;;5.85;2.38;;;;;;;;;;4981496;28;20049;-57
2024/01/07 10:00:27;;;;;;;5.20;2.38;;;;;;;;;;4981586;28;20046;-55
2024/01/07 10:02:53;;;;;;;6.55;2.78;;;;;;;;;;4987774;28;20056;-56
2024/01/07 10:05:19;;;;;;;5.88;3.00;;;;;;;;;;4985930;28;20046;-57
2024/01/07 10:07:45;;;;;;;6.07;2.20;;;1.80;99.90;;;;;;4986115;28;20053;-57
2024/01/07 10:10:15;;;;;;;5.40;3.17;;;;;;;;;;4986223;28;20050;-57
2024/01/07 10:12:41;;;;;;;6.55;3.40;;;;;;;;;;4986443;28;20502;-56
2024/01/07 10:15:07;;;;;;;6.93;4.00;;;;;;;;;;4986264;28;20370;-56
2024/01/07 10:17:33;;;;;;;6.07;2.67;;;;;;;;;;4986781;28;20066;-54
2024/01/07 10:19:59;;;;;;;7.15;2.90;;;;;;;;;;4987534;28;20565;-57
2024/01/07 10:22:26;;;;;;;7.40;2.50;;;1.60;99.90;;;;;;4991232;28;20117;-57
2024/01/07 10:24:52;;;;;;;5.57;2.45;;;2.10;99.90;;;;;;4993403;28;20137;-55
2024/01/07 10:27:18;;;;;;;9.55;6.18;;;;;;;;;;4984559;28;20542;-57
2024/01/07 10:29:50;;;;;;;5.30;2.50;;;;;;;;;;4985795;28;20066;-56
2024/01/07 10:32:16;;;;;;;5.15;2.53;;;;;;;;;;4989022;28;20046;-56
2024/01/07 10:34:44;;;;;;;7.50;3.20;;;;;;;;;;4988816;28;20034;-55
2024/01/07 10:37:11;;;;;;;6.38;2.40;;;;;;;;;;4986451;28;20751;-57
2024/01/07 10:39:37;;;;;;;5.72;2.33;;;;;;;;;;4990452;28;20042;-55
2024/01/07 10:42:04;;;;;;;5.25;2.42;;;;;;;;;;4992221;28;20502;-56
2024/01/07 10:44:33;;;;;;;4.88;2.10;;;;;;;;;;4989029;28;20038;-55
2024/01/07 10:47:00;;;;;;;7.72;4.30;;;;;;;;;;4988879;28;20057;-53
2024/01/07 10:49:27;;;;;;;6.15;3.22;;;2.10;99.90;;;;;;4990244;28;20041;-56
2024/01/07 10:52:04;;;;;;;6.10;3.00;;;2.50;99.90;;;;;;4984371;28;20046;-57
2024/01/07 10:54:30;;;;;;;5.53;2.60;;;;;;;;;;4990722;28;20034;-57
2024/01/07 10:57:00;;;;;;;6.45;2.20;;;2.50;99.90;;;;;;4989509;28;20042;-54
2024/01/07 10:59:28;;;;;;;5.78;2.38;;;;;;;;;;4990173;28;20445;-55
2024/01/07 11:01:54;;;;;;;11.45;2.40;;;2.70;99.90;;;;;;4985489;28;20073;-57
2024/01/07 11:04:24;;;;;;;6.32;2.58;;;;;;;;;;4989455;28;20112;-56
2024/01/07 11:07:37;;;;;;;5.05;2.33;;;3.00;99.90;;;;;;4990392;28;20061;-57
2024/01/07 11:10:11;;;;;;;6.95;2.80;;;;;;;;;;4990151;28;20057;-56
2024/01/07 11:12:36;;;;;;;6.93;2.87;;;3.00;99.90;;;;;;4989888;28;20045;-56
2024/01/07 11:15:02;;;;;;;6.10;2.25;;;2.90;99.90;;;;;;4987875;28;20046;-56
2024/01/07 11:17:37;;;;;;;6.28;2.70;;;2.80;99.90;;;;;;4980296;28;20479;-57
2024/01/07 11:20:11;;;;;;;5.68;2.60;;;2.40;99.90;;;;;;4991027;28;20046;-55
2024/01/07 11:22:36;;;;;;;7.25;2.47;;;2.70;99.90;;;;;;4990699;28;20563;-56
2024/01/07 11:25:03;;;;;;;5.82;2.30;;;;;;;;;;4992414;28;20050;-57
2024/01/07 11:27:32;;;;;;;5.20;2.38;;;;;;;;;;4992546;28;20050;-56
2024/01/07 11:30:04;;;;;;;5.35;2.20;;;;;;;;;;4992024;28;20045;-54
2024/01/07 11:32:30;;;;;;;8.32;4.28;;;2.40;99.90;;;;;;4992033;28;20457;-57
2024/01/07 11:34:59;;;;;;;6.03;2.40;;;;;;;;;;4993115;28;20034;-56
2024/01/07 11:37:25;;;;;;;5.22;2.58;;;;;;;;;;4992580;28;20387;-56
2024/01/07 11:39:59;;;;;;;6.35;2.75;;;;;;;;;;4992134;28;20046;-57
2024/01/07 11:42:25;;;;;;;5.82;2.35;;;;;;;;;;4990743;28;20120;-57
2024/01/07 11:44:55;;;;;;;6.20;2.10;;;;;;;;;;4988673;28;20048;-53
2024/01/07 11:47:22;;;;;;;6.15;3.15;;;;;;;;;;4990343;28;20046;-57
2024/01/07 11:49:51;;;;;;;5.35;2.33;;;;;;;;;;4992028;28;20487;-56
2024/01/07 11:52:18;;;;;;;6.25;3.70;;;;;;;;;;4990184;28;20042;-56
2024/01/07 11:54:44;;;;;;;5.85;2.47;;;;;;;;;;4992380;28;20128;-56
2024/01/07 11:57:11;;;;;;;5.72;2.42;;;;;;;;;;4990776;28;20510;-56
2024/01/07 11:59:37;;;;;;;6.35;2.50;;;;;;;;;;4991324;28;20112;-57
2024/01/07 12:02:04;;;;;;;5.00;2.28;;;;;;;;;;4992513;28;20104;-56
2024/01/07 12:04:31;;;;;;;6.07;2.42;;;;;;;;;;4991525;28;20034;-55
2024/01/07 12:06:57;;;;;;;5.40;2.30;;;;;;;;;;4985209;28;20070;-56
2024/01/07 12:09:22;;;;;;;5.68;2.75;;;6.30;99.90;;;;;;4985676;28;20494;-53
2024/01/07 12:11:49;;;;;;;6.22;2.25;;;;;;;;;;4991535;28;20111;-56
2024/01/07 12:14:15;;;;;;;8.02;3.05;;;;;;;;;;4988261;28;20049;-56
2024/01/07 12:16:41;;;;;;;7.22;3.53;;;;;;;;;;4980317;28;20034;-57
2024/01/07 12:19:09;;;;;;;7.32;3.05;;;;;;;;;;4979174;28;20105;-56
2024/01/07 12:21:35;;;;;;;11.88;5.25;;;;;;;;;;4971266;28;20105;-57
2024/01/07 12:24:01;;;;;;;7.90;2.88;;;;;;;;;;4984445;28;20410;-56
2024/01/07 12:26:28;;;;;;;5.95;2.63;;;;;;;;;;4984463;28;20124;-55
2024/01/07 12:28:59;;;;;;;6.25;2.30;;;;;;;;;;4984318;28;20038;-56
2024/01/07 12:31:26;;;;;;;5.43;2.25;;;;;;;;;;4987955;28;20150;-57
2024/01/07 12:33:55;;;;;;;4.75;2.00;;;12.30;99.90;;;;;;4984108;28;20039;-57
2024/01/07 12:36:22;;;;;;;6.15;2.30;;;;;;;;;;4984932;28;20518;-55
2024/01/07 12:38:48;;;;;;;5.68;2.20;;;;;;;;;;4984802;28;20042;-55
2024/01/07 12:41:15;;;;;;;4.95;2.10;;;;;;;;;;4986879;28;20078;-53
2024/01/07 12:43:40;;;;;;;4.60;2.00;;;14.70;99.90;;;;;;4990596;28;20117;-52
2024/01/07 12:46:07;;;;;;;4.72;2.03;;;;;;;;;;4985265;28;20137;-53
2024/01/07 12:48:32;;;;;;;5.18;1.92;;;15.60;99.90;;;;;;4986967;28;20414;-55
2024/01/07 12:50:58;;;;;;;4.97;2.08;;;;;;;;;;4982304;28;20043;-54
2024/01/07 12:53:24;;;;;;;4.80;1.92;;;;;;;;;;4984128;28;20030;-55
2024/01/07 12:55:50;;;;;;;6.45;1.80;;;15.90;99.90;;;;;;4985638;28;20056;-56
2024/01/07 12:58:16;;;;;;;4.25;1.63;;;15.70;99.90;;;;;;4982039;28;20137;-55
2024/01/07 13:00:43;;;;;;;5.43;1.80;;;16.20;99.90;;;;;;4984925;28;20046;-55
2024/01/07 13:03:14;;;;;;;5.15;2.35;;;16.60;99.90;;;;;;4979053;28;20403;-55
2024/01/07 13:05:41;;;;;;;4.50;1.83;;;17.40;99.90;;;;;;4982417;28;20384;-56
2024/01/07 13:08:07;;;;;;;6.05;1.92;;;17.50;99.90;;;;;;4980023;28;20118;-57
2024/01/07 13:10:33;;;;;;;5.20;2.08;;;17.20;99.90;;;;;;4988953;28;20149;-56
2024/01/07 13:12:59;;;;;;;6.95;1.70;;;17.00;99.90;;;;;;4988982;28;20038;-55
2024/01/07 13:15:24;;;;;;;5.80;2.13;;;17.40;99.90;;;;;;4985471;28;20057;-55
2024/01/07 13:17:51;;;;;;;5.03;1.90;;;16.80;99.90;;;;;;4988137;28;20466;-52
2024/01/07 13:20:19;;;;;;;5.43;2.35;;;17.30;99.90;;;;;;4986357;28;20066;-54
2024/01/07 13:22:46;;;;;;;4.45;1.85;;;;;;;;;;4985573;28;20049;-54
2024/01/07 13:25:12;;;;;;;5.32;1.80;;;16.30;99.90;;;;;;4984364;28;20331;-52
2024/01/07 13:27:38;;;;;;;5.93;2.38;;;17.10;99.90;;;;;;4988683;28;20149;-55
2024/01/07 13:30:06;;;;;;;6.05;2.13;;;17.00;99.90;;;;;;4978280;28;20098;-54
2024/01/07 13:32:36;;;;;;;4.88;2.00;;;17.00;99.90;;;;;;4989100;28;20057;-55
2024/01/07 13:35:02;;;;;;;4.93;2.00;;;16.80;99.90;;;;;;4985219;28;20042;-55
2024/01/07 13:37:28;;;;;;;4.70;1.85;;;16.70;99.90;;;;;;4987693;28;20049;-55
2024/01/07 13:39:54;;;;;;;5.63;2.00;;;15.00;1.00;;;;;;4987374;28;20410;-52
2024/01/07 13:42:19;;;;;;;5.97;2.10;;;14.10;1.00;;;;;;4986226;28;20045;-53
2024/01/07 13:44:46;;;;;;;4.43;1.88;;;14.60;30.70;;;;;;4986610;28;20070;-52
2024/01/07 13:47:14;;;;;;;5.95;2.17;;;12.80;99.90;;;;;;4980491;28;20038;-55
2024/01/07 13:49:40;;;;;;;5.50;2.20;;;11.00;31.00;;;;;;4980436;28;20575;-56
2024/01/07 13:52:06;;;;;;;5.18;2.30;;;10.90;76.40;;;;;;4977084;28;20773;-55
2024/01/07 13:54:32;;;;;;;6.22;2.10;;;10.30;99.90;;;;;;4984983;28;20110;-52
2024/01/07 13:56:57;;;;;;;5.47;2.35;;;9.90;99.90;;;;;;4984487;28;20026;-52
2024/01/07 13:59:23;;;;;;;4.70;1.80;;;8.80;99.90;;;;;;4983554;28;20042;-55
2024/01/07 14:01:49;;;;;;;6.38;2.40;;;8.20;38.30;;;;;;4979358;28;20030;-53
2024/01/07 14:04:15;;;;;;;5.68;2.35;;;7.80;99.90;;;;;;4982891;28;20042;-55
2024/01/07 14:06:41;;;;;;;6.55;2.30;;;7.90;99.90;;;;;;4981993;28;20482;-56